Time;durP1;ratioP1;P1;durP2;ratioP2;P2;SDS_P1;SDS_P2;PMS_P1;PMS_P2;Temp;Humidity;BMP_temperature;BMP_pressure;BME280_temperature;BME280_humidity;BME280_pressure;Samples;Min_cycle;Max_cycle;Signal;HPM_P1;HPM_P2
2023/10/29 00:00:50;;;;;;;6.28;3.22;;;;;;;;;;6127756;23;20024;-84
2023/10/29 00:03:17;;;;;;;3.50;3.10;;;;;;;;;;6104166;23;20074;-84
2023/10/29 00:05:45;;;;;;;4.97;3.90;;;;;;;;;;6154176;23;20331;-84
2023/10/29 00:08:15;;;;;;;7.53;3.58;;;;;;;;;;6128253;23;20027;-85
2023/10/29 00:10:42;;;;;;;4.82;3.45;;;;;;;;;;6152390;23;20021;-84
2023/10/29 00:13:12;;;;;;;5.53;3.78;;;;;;;;;;6129097;23;20029;-84
2023/10/29 00:15:41;;;;;;;5.80;4.07;;;;;;;;;;6129377;23;20018;-84
2023/10/29 00:18:16;;;;;;;7.13;4.93;;;;;;;;;;6128195;23;20358;-84
2023/10/29 00:20:45;;;;;;;7.43;4.40;;;;;;;;;;6102474;23;20025;-84
2023/10/29 00:23:13;;;;;;;15.52;3.70;;;;;;;;;;6128502;23;20024;-84
2023/10/29 00:25:41;;;;;;;4.13;3.67;;;;;;;;;;6154985;23;20319;-85
2023/10/29 00:28:11;;;;;;;5.65;4.13;;;;;;;;;;6127495;23;20020;-84
2023/10/29 00:30:38;;;;;;;5.60;3.63;;;;;;;;;;6128555;23;20490;-84
2023/10/29 00:33:06;;;;;;;8.07;4.75;;;;;;;;;;6103587;23;20076;-84
2023/10/29 00:35:37;;;;;;;4.32;3.53;;;;;;;;;;6128062;23;20029;-84
2023/10/29 00:38:04;;;;;;;4.63;3.50;;;;;;;;;;6103044;23;20021;-84
2023/10/29 00:40:31;;;;;;;4.80;3.70;;;;;;;;;;6127702;23;20025;-84
2023/10/29 00:43:00;;;;;;;7.38;3.38;;;;;;;;;;6128191;23;20350;-84
2023/10/29 00:45:27;;;;;;;9.02;4.18;;;;;;;;;;6103604;23;20020;-84
2023/10/29 00:47:57;;;;;;;6.07;4.28;;;;;;;;;;6127831;23;20017;-84
2023/10/29 00:50:24;;;;;;;5.60;3.67;;;;;;;;;;6128121;23;20013;-84
2023/10/29 00:52:54;;;;;;;5.60;3.72;;;;;;;;;;6128065;23;20014;-84
2023/10/29 00:55:23;;;;;;;6.45;4.10;;;;;;;;;;6103687;23;20013;-84
2023/10/29 00:57:51;;;;;;;8.13;3.60;;;;;;;;;;6102762;23;20022;-84
2023/10/29 01:00:21;;;;;;;4.47;3.45;;;;;;;;;;6127191;23;20013;-84
2023/10/29 01:02:48;;;;;;;4.78;3.15;;;;;;;;;;6104027;23;20024;-84
2023/10/29 01:05:15;;;;;;;5.45;3.40;;;;;;;;;;6103498;23;20020;-84
2023/10/29 01:07:46;;;;;;;5.78;3.10;;;;;;;;;;6128827;23;20022;-84
2023/10/29 01:10:15;;;;;;;4.35;3.53;;;;;;;;;;6126571;23;20013;-84
2023/10/29 01:12:45;;;;;;;5.00;3.67;;;;;;;;;;6103616;23;20040;-84
2023/10/29 01:15:12;;;;;;;3.70;3.20;;;;;;;;;;6131416;23;20018;-84
2023/10/29 01:17:39;;;;;;;6.40;2.50;;;;;;;;;;6103904;23;20021;-84
2023/10/29 01:20:07;;;;;;;4.65;3.53;;;;;;;;;;6127673;23;20022;-79
2023/10/29 01:22:36;;;;;;;4.55;3.92;;;;;;;;;;6133946;23;20036;-81
2023/10/29 01:25:08;;;;;;;4.72;3.10;;;;;;;;;;6138001;23;20020;-81
2023/10/29 01:27:37;;;;;;;6.07;3.10;;;;;;;;;;6112973;23;20018;-81
2023/10/29 01:30:09;;;;;;;6.93;3.78;;;;;;;;;;6110488;23;20028;-81
2023/10/29 01:32:37;;;;;;;3.58;3.10;;;;;;;;;;6111819;23;20358;-81
2023/10/29 01:35:07;;;;;;;4.40;2.95;;;;;;;;;;6137085;23;20028;-81
2023/10/29 01:37:35;;;;;;;5.75;4.47;;;;;;;;;;6112945;23;20335;-81
2023/10/29 01:40:03;;;;;;;4.00;3.10;;;;;;;;;;6112098;23;20021;-81
2023/10/29 01:42:33;;;;;;;6.20;3.28;;;;;;;;;;6110957;23;20024;-81
2023/10/29 01:45:03;;;;;;;7.18;3.30;;;;;;;;;;6112039;23;20020;-81
2023/10/29 01:47:33;;;;;;;4.75;3.20;;;;;;;;;;6111202;23;20021;-81
2023/10/29 01:50:04;;;;;;;9.90;3.75;;;;;;;;;;6112258;23;20024;-81
2023/10/29 01:52:31;;;;;;;3.50;3.03;;;;;;;;;;6111628;23;20029;-81
2023/10/29 01:55:01;;;;;;;7.40;2.95;;;;;;;;;;6137288;23;20345;-81
2023/10/29 01:57:32;;;;;;;3.72;2.90;;;;;;;;;;6112417;23;20018;-81
2023/10/29 02:00:00;;;;;;;7.13;3.85;;;;;;;;;;6111920;23;20025;-81
2023/10/29 02:02:28;;;;;;;5.20;3.47;;;;;;;;;;6108750;23;20021;-81
2023/10/29 02:04:55;;;;;;;6.78;2.97;;;;;;;;;;6111319;23;20032;-81
2023/10/29 02:07:23;;;;;;;5.60;3.95;;;;;;;;;;6111926;23;20017;-81
2023/10/29 02:09:51;;;;;;;10.52;3.47;;;;;;;;;;6136238;23;20308;-81
2023/10/29 02:12:18;;;;;;;11.38;3.80;;;;;;;;;;6111522;23;20026;-81
2023/10/29 02:14:45;;;;;;;4.38;3.40;;;;;;;;;;6111702;23;20018;-81
2023/10/29 02:17:12;;;;;;;4.47;3.10;;;;;;;;;;6136495;23;20476;-81
2023/10/29 02:19:41;;;;;;;5.63;2.72;;;;;;;;;;6111966;23;20025;-81
2023/10/29 02:22:09;;;;;;;4.07;2.75;;;;;;;;;;6110855;23;20021;-81
2023/10/29 02:24:36;;;;;;;5.35;3.33;;;;;;;;;;6111163;23;20039;-81
2023/10/29 02:27:06;;;;;;;3.17;2.80;;;;;;;;;;6111998;23;20031;-81
2023/10/29 02:29:36;;;;;;;3.40;2.75;;;;;;;;;;6111048;23;20021;-81
2023/10/29 02:32:04;;;;;;;5.00;2.47;;;;;;;;;;6110781;23;20021;-81
2023/10/29 02:34:32;;;;;;;5.18;3.55;;;;;;;;;;6110726;23;20454;-81
2023/10/29 02:36:59;;;;;;;4.10;3.55;;;;;;;;;;6112119;23;20036;-81
2023/10/29 02:39:30;;;;;;;5.65;3.17;;;;;;;;;;6112626;23;20021;-81
2023/10/29 02:42:00;;;;;;;3.83;3.28;;;;;;;;;;6111319;23;20029;-81
2023/10/29 02:44:30;;;;;;;5.53;2.42;;;;;;;;;;6147079;23;20027;-81
2023/10/29 02:46:57;;;;;;;4.43;3.25;;;;;;;;;;6111805;23;20037;-81
2023/10/29 02:49:24;;;;;;;3.35;2.60;;;;;;;;;;6120455;23;20349;-81
2023/10/29 02:51:52;;;;;;;2.80;2.60;;;;;;;;;;6110410;23;20018;-81
2023/10/29 02:54:19;;;;;;;4.00;2.85;;;;;;;;;;6110018;23;20025;-81
2023/10/29 02:56:50;;;;;;;5.18;3.15;;;;;;;;;;6111378;23;20354;-81
2023/10/29 02:59:17;;;;;;;5.15;3.05;;;;;;;;;;6112045;23;20026;-81
2023/10/29 03:01:44;;;;;;;7.30;2.80;;;;;;;;;;6111065;23;20028;-81
2023/10/29 03:04:14;;;;;;;7.95;3.53;;;;;;;;;;6112046;23;20021;-81
2023/10/29 03:06:42;;;;;;;3.55;2.80;;;;;;;;;;6110835;23;20024;-81
2023/10/29 03:09:11;;;;;;;4.20;2.95;;;;;;;;;;6136009;23;20029;-81
2023/10/29 03:11:39;;;;;;;4.03;3.22;;;;;;;;;;6135967;23;20022;-81
2023/10/29 03:14:08;;;;;;;4.63;3.60;;;;;;;;;;6136824;23;20030;-81
2023/10/29 03:16:35;;;;;;;3.25;2.92;;;;;;;;;;6111482;23;20018;-81
2023/10/29 03:19:02;;;;;;;4.13;2.67;;;;;;;;;;6111272;23;20032;-81
2023/10/29 03:21:30;;;;;;;3.53;2.83;;;;;;;;;;6135411;23;20411;-81
2023/10/29 03:23:57;;;;;;;3.50;2.90;;;;;;;;;;6112673;23;20021;-81
2023/10/29 03:26:25;;;;;;;4.85;2.88;;;;;;;;;;6136502;23;20022;-81
2023/10/29 03:28:54;;;;;;;3.83;2.95;;;;;;;;;;6110981;23;20021;-81
2023/10/29 03:31:23;;;;;;;4.57;3.50;;;;;;;;;;6111792;23;20025;-81
2023/10/29 03:33:52;;;;;;;3.60;3.08;;;;;;;;;;6113334;23;20028;-81
2023/10/29 03:36:20;;;;;;;5.28;2.80;;;;;;;;;;6114093;23;20024;-81
2023/10/29 03:38:47;;;;;;;5.50;2.83;;;;;;;;;;6137646;23;20020;-82
2023/10/29 03:41:21;;;;;;;3.08;2.50;;;;;;;;;;6114223;23;20349;-82
2023/10/29 03:43:49;;;;;;;4.55;3.00;;;;;;;;;;6115287;23;20017;-82
2023/10/29 03:46:19;;;;;;;4.85;2.95;;;;;;;;;;6114294;23;20445;-82
2023/10/29 03:48:48;;;;;;;3.40;2.92;;;;;;;;;;6137918;23;20024;-82
2023/10/29 03:51:16;;;;;;;8.95;3.15;;;;;;;;;;6113048;23;20027;-82
2023/10/29 03:53:48;;;;;;;4.00;2.53;;;;;;;;;;6149098;23;20014;-82
2023/10/29 03:56:18;;;;;;;6.20;2.80;;;;;;;;;;6114349;23;20024;-82
2023/10/29 03:58:45;;;;;;;3.20;2.47;;;;;;;;;;6112071;23;20036;-82
2023/10/29 04:01:13;;;;;;;3.45;2.40;;;;;;;;;;6113269;23;20473;-81
2023/10/29 04:03:41;;;;;;;8.18;3.42;;;;;;;;;;6138486;23;20021;-81
2023/10/29 04:06:10;;;;;;;6.05;3.17;;;;;;;;;;6114949;23;20470;-81
2023/10/29 04:08:40;;;;;;;6.28;3.20;;;;;;;;;;6115024;23;20040;-81
2023/10/29 04:11:07;;;;;;;3.58;2.38;;;;;;;;;;6113872;23;20022;-81
2023/10/29 04:13:37;;;;;;;4.03;2.60;;;;;;;;;;6148298;23;20013;-81
2023/10/29 04:16:06;;;;;;;3.33;2.55;;;;;;;;;;6115366;23;20021;-81
2023/10/29 04:18:34;;;;;;;3.83;2.47;;;;;;;;;;6115445;23;20345;-81
2023/10/29 04:21:02;;;;;;;6.95;2.75;;;;;;;;;;6138947;23;20018;-81
2023/10/29 04:23:31;;;;;;;4.70;2.63;;;;;;;;;;6138510;23;20021;-81
2023/10/29 04:25:58;;;;;;;4.65;2.45;;;;;;;;;;6114486;23;20021;-82
2023/10/29 04:28:27;;;;;;;5.55;2.78;;;;;;;;;;6138630;23;20353;-81
2023/10/29 04:30:55;;;;;;;3.83;2.47;;;;;;;;;;6112430;23;20354;-81
2023/10/29 04:33:25;;;;;;;14.93;3.15;;;;;;;;;;6138469;23;20024;-81
2023/10/29 04:35:52;;;;;;;4.18;2.28;;;;;;;;;;6113341;23;20017;-81
2023/10/29 04:38:19;;;;;;;5.03;2.83;;;;;;;;;;6112902;23;20024;-81
2023/10/29 04:40:50;;;;;;;2.97;2.40;;;;;;;;;;6136902;23;20023;-81
2023/10/29 04:43:17;;;;;;;4.68;2.22;;;;;;;;;;6112841;23;20018;-81
2023/10/29 04:45:45;;;;;;;7.65;3.78;;;;;;;;;;6113318;23;20018;-81
2023/10/29 04:48:12;;;;;;;4.75;2.47;;;;;;;;;;6114210;23;20036;-82
2023/10/29 04:50:39;;;;;;;4.75;2.15;;;;;;;;;;6138314;23;20020;-82
2023/10/29 04:53:09;;;;;;;4.70;2.13;;;;;;;;;;6112696;23;20031;-82
2023/10/29 04:55:36;;;;;;;4.05;2.30;;;;;;;;;;6114362;23;20024;-82
2023/10/29 04:58:04;;;;;;;3.40;2.42;;;;;;;;;;6113409;23;20026;-82
2023/10/29 05:00:34;;;;;;;2.58;2.08;;;;;;;;;;6168286;23;20021;-82
2023/10/29 05:03:06;;;;;;;4.22;2.50;;;;;;;;;;6113662;23;20027;-81
2023/10/29 05:05:33;;;;;;;3.30;2.20;;;;;;;;;;6112575;23;20025;-81
2023/10/29 05:08:00;;;;;;;3.00;2.65;;;;;;;;;;6112922;23;20451;-81
2023/10/29 05:10:28;;;;;;;2.53;2.10;;;;;;;;;;6162779;23;20741;-81
2023/10/29 05:12:58;;;;;;;5.47;2.33;;;;;;;;;;6137491;23;20027;-81
2023/10/29 05:15:26;;;;;;;3.08;2.35;;;;;;;;;;6112877;23;20487;-81
2023/10/29 05:17:53;;;;;;;4.30;2.55;;;;;;;;;;6137590;23;20014;-81
2023/10/29 05:20:21;;;;;;;2.67;2.05;;;;;;;;;;6113603;23;20028;-81
2023/10/29 05:22:48;;;;;;;3.00;2.50;;;;;;;;;;6138146;23;20028;-81
2023/10/29 05:25:17;;;;;;;3.08;2.40;;;;;;;;;;6137158;23;20032;-82
2023/10/29 05:27:50;;;;;;;4.63;2.25;;;;;;;;;;6113870;23;20021;-82
2023/10/29 05:30:18;;;;;;;3.78;2.08;;;;;;;;;;6112277;23;20024;-82
2023/10/29 05:32:46;;;;;;;3.45;2.05;;;;;;;;;;6112214;23;20334;-82
2023/10/29 05:35:14;;;;;;;4.47;2.38;;;;;;;;;;6113219;23;20018;-82
2023/10/29 05:37:41;;;;;;;3.75;2.50;;;;;;;;;;6112932;23;20022;-81
2023/10/29 05:40:09;;;;;;;2.90;2.33;;;;;;;;;;6137209;23;20028;-81
2023/10/29 05:42:36;;;;;;;6.70;3.05;;;;;;;;;;6112037;23;20335;-82
2023/10/29 05:45:06;;;;;;;3.88;2.72;;;;;;;;;;6111995;23;20018;-81
2023/10/29 05:47:34;;;;;;;4.65;2.28;;;;;;;;;;6112744;23;20547;-81
2023/10/29 05:50:03;;;;;;;2.85;2.10;;;;;;;;;;6088690;23;20026;-81
2023/10/29 05:52:33;;;;;;;2.42;2.15;;;;;;;;;;6135001;23;20027;-81
2023/10/29 05:55:03;;;;;;;2.53;1.90;;;;;;;;;;6137275;23;20470;-81
2023/10/29 05:57:31;;;;;;;2.83;2.10;;;;;;;;;;6161199;23;20018;-81
2023/10/29 05:59:58;;;;;;;2.53;2.10;;;;;;;;;;6136947;23;20017;-82
2023/10/29 06:02:28;;;;;;;4.28;2.63;;;;;;;;;;6161525;23;20477;-82
2023/10/29 06:04:58;;;;;;;5.18;2.45;;;;;;;;;;6138251;23;20032;-82
2023/10/29 06:07:28;;;;;;;4.28;2.40;;;;;;;;;;6137410;23;20014;-82
2023/10/29 06:09:56;;;;;;;1.92;1.70;;;;;;;;;;6113596;23;20055;-82
2023/10/29 06:12:26;;;;;;;2.83;2.30;;;;;;;;;;6135536;23;20331;-82
2023/10/29 06:14:56;;;;;;;6.03;2.80;;;;;;;;;;6111486;23;20027;-82
2023/10/29 06:17:25;;;;;;;2.75;2.33;;;;;;;;;;6112868;23;20014;-82
2023/10/29 06:19:57;;;;;;;4.60;2.60;;;;;;;;;;6165585;23;20484;-82
2023/10/29 06:22:24;;;;;;;2.72;2.30;;;;;;;;;;6136759;23;20419;-82
2023/10/29 06:24:55;;;;;;;5.47;3.13;;;;;;;;;;6162259;23;20024;-82
2023/10/29 06:27:22;;;;;;;3.80;2.90;;;;;;;;;;6112073;23;20339;-82
2023/10/29 06:29:50;;;;;;;3.05;2.42;;;;;;;;;;6136868;23;20017;-82
2023/10/29 06:32:20;;;;;;;6.07;2.75;;;;;;;;;;6111777;23;20021;-82
2023/10/29 06:34:49;;;;;;;4.88;2.22;;;;;;;;;;6163172;23;20020;-82
2023/10/29 06:37:19;;;;;;;3.67;2.55;;;;;;;;;;6136605;23;20013;-82
2023/10/29 06:39:46;;;;;;;4.88;2.65;;;;;;;;;;6137839;23;20022;-81
2023/10/29 06:42:17;;;;;;;4.72;3.17;;;;;;;;;;6112801;23;20028;-81
2023/10/29 06:44:47;;;;;;;3.33;2.40;;;;;;;;;;6113159;23;20356;-81
2023/10/29 06:47:15;;;;;;;3.25;2.80;;;;;;;;;;6112703;23;20018;-81
2023/10/29 06:49:43;;;;;;;2.25;2.05;;;;;;;;;;6114248;23;20029;-81
2023/10/29 06:52:13;;;;;;;3.35;2.13;;;;;;;;;;6137266;23;20023;-81
2023/10/29 06:54:43;;;;;;;3.67;2.55;;;;;;;;;;6146717;23;20028;-81
2023/10/29 06:57:10;;;;;;;5.47;2.90;;;;;;;;;;6112635;23;20036;-81
2023/10/29 06:59:39;;;;;;;3.47;2.47;;;;;;;;;;6113380;23;20028;-81
2023/10/29 07:02:08;;;;;;;2.55;2.22;;;;;;;;;;6113144;23;20032;-81
2023/10/29 07:04:36;;;;;;;3.45;2.53;;;;;;;;;;6138036;23;20022;-82
2023/10/29 07:07:05;;;;;;;4.10;2.20;;;;;;;;;;6136277;23;20020;-82
2023/10/29 07:09:35;;;;;;;4.95;2.30;;;;;;;;;;6113578;23;20018;-82
2023/10/29 07:12:02;;;;;;;4.07;2.55;;;;;;;;;;6138824;23;20018;-81
2023/10/29 07:14:32;;;;;;;6.32;3.15;;;;;;;;;;6138718;23;20476;-82
2023/10/29 07:17:00;;;;;;;3.78;3.33;;;;;;;;;;6134971;23;20014;-82
2023/10/29 07:19:53;;;;;;;5.93;3.72;;;;;;;;;;6105252;23;20044;-82
2023/10/29 07:22:37;;;;;;;;;;;;;;;;;;;;;
2023/10/29 07:25:49;;;;;;;;;;;;;;;;;;;;;
2023/10/29 07:28:34;;;;;;;3.95;2.55;;;;;;;;;;6193849;23;20061;-82
2023/10/29 07:31:12;;;;;;;7.57;3.75;;;;;;;;;;6151120;23;20057;-82
2023/10/29 07:34:06;;;;;;;;;;;;;;;;;;;;;
2023/10/29 07:37:17;;;;;;;2.92;2.55;;;;;;;;;;6163222;23;20022;-82
2023/10/29 07:39:49;;;;;;;5.13;4.57;;;;;;;;;;6128170;23;20025;-82
2023/10/29 07:42:22;;;;;;;5.32;2.70;;;;;;;;;;6164615;23;20346;-82
2023/10/29 07:45:11;;;;;;;5.28;3.10;;;;;;;;;;6127969;23;20029;-82
2023/10/29 07:47:55;;;;;;;5.00;2.60;;;;;;;;;;6141420;23;20017;-82
2023/10/29 07:51:07;;;;;;;;;;;;;;;;;;;;;
2023/10/29 07:54:05;;;;;;;;;;;;;;;;;;;;;
2023/10/29 07:56:57;;;;;;;9.32;3.95;;;;;;;;;;6139143;23;20017;-82
2023/10/29 07:59:51;;;;;;;3.63;3.17;;;;;;;;;;6105479;23;20028;-82
2023/10/29 08:17:00;;;;;;;4.38;3.03;;;;;;;;;;5115587;27;20397;-84
2023/10/29 08:19:52;;;;;;;4.45;3.05;;;;;;;;;;5048628;28;20079;-83
2023/10/29 08:22:50;;;;;;;4.00;3.35;;;;;;;;;;5070242;28;20048;-82
2023/10/29 08:26:15;;;;;;;9.32;4.20;;;;;;;;;;5081701;28;20502;-83
2023/10/29 08:28:52;;;;;;;4.65;4.13;;;;;;;;;;5087865;28;20412;-83
2023/10/29 08:31:45;;;;;;;5.60;4.28;;;;;;;;;;5085702;28;20537;-83
2023/10/29 08:34:24;;;;;;;4.38;3.90;;;;;;;;;;5089442;28;20287;-83
2023/10/29 08:36:59;;;;;;;5.80;4.72;;;;;;;;;;5091662;28;20043;-83
2023/10/29 08:39:48;;;;;;;8.55;5.78;;;;;;;;;;5088666;28;20056;-83
2023/10/29 08:42:43;;;;;;;7.38;5.32;;;;;;;;;;5090908;28;20083;-82
2023/10/29 08:46:04;;;;;;;4.45;4.05;;;;;;;;;;5084499;28;20417;-82
2023/10/29 08:53:19;;;;;;;;;;;;;;;;;;;;;
2023/10/29 08:56:24;;;;;;;6.95;3.30;;;;;;;;;;5054277;28;20409;-82
2023/10/29 08:59:04;;;;;;;11.05;3.92;;;;;;;;;;5087475;28;20040;-82
2023/10/29 09:01:32;;;;;;;4.28;3.35;;;;;;;;;;5087449;28;20422;-82
2023/10/29 09:04:03;;;;;;;6.78;2.97;;;;;;;;;;5053527;28;20053;-82
2023/10/29 09:06:37;;;;;;;6.85;3.40;;;;;;;;;;5072993;28;20052;-82
2023/10/29 09:09:13;;;;;;;3.05;2.67;;;;;;;;;;5087261;28;20067;-82
2023/10/29 09:11:53;;;;;;;3.97;3.53;;;;;;;;;;5084963;28;20052;-82
2023/10/29 09:14:20;;;;;;;5.82;3.00;;;;;;;;;;5072073;28;20493;-82
2023/10/29 09:16:52;;;;;;;3.70;3.13;;;;;;;;;;5086219;28;20050;-82
2023/10/29 09:19:26;;;;;;;3.75;2.78;;;;;;;;;;5088705;28;20517;-82
2023/10/29 09:21:57;;;;;;;3.25;2.78;;;;;;;;;;5066988;28;20048;-82
2023/10/29 09:24:25;;;;;;;2.97;2.47;;;;;;;;;;5091412;28;20505;-82
2023/10/29 09:26:56;;;;;;;3.63;2.78;;;;;;;;;;5058845;28;20425;-82
2023/10/29 09:29:29;;;;;;;5.78;2.85;;;;;;;;;;5063172;28;20720;-83
2023/10/29 09:32:40;;;;;;;3.58;2.40;;;;;;;;;;5070773;28;20513;-83
2023/10/29 09:35:39;;;;;;;;;;;;;;;;;;;;;
2023/10/29 09:38:22;;;;;;;3.50;2.70;;;;;;;;;;5071531;28;20080;-83
2023/10/29 09:40:52;;;;;;;4.72;3.63;;;;;;;;;;5057448;28;20052;-82
2023/10/29 09:43:23;;;;;;;3.88;2.92;;;;;;;;;;5061814;28;20059;-83
2023/10/29 09:45:52;;;;;;;3.92;3.47;;;;;;;;;;5063004;28;20383;-83
2023/10/29 09:57:44;;;;;;;5.45;2.92;;;;;;;;;;1200003;22;20425;-83
2023/10/29 10:00:15;;;;;;;8.55;2.53;;;;;;;;;;5068753;28;20056;-83
2023/10/29 10:02:52;;;;;;;3.97;2.47;;;;;;;;;;5052492;28;20413;-83
2023/10/29 10:05:36;;;;;;;4.32;2.33;;;;;;;;;;5052844;28;20048;-84
2023/10/29 10:08:06;;;;;;;2.58;2.33;;;;;;;;;;5050442;28;20056;-84
2023/10/29 10:13:37;;;;;;;2.95;1.80;;;;;;;;;;5050640;28;20466;-84
2023/10/29 10:16:11;;;;;;;2.05;1.50;;;;;;;;;;5028572;28;20052;-84
2023/10/29 10:18:51;;;;;;;2.47;1.60;;;;;;;;;;5052555;28;20536;-84
2023/10/29 10:21:21;;;;;;;2.35;1.70;;;;;;;;;;5036926;28;20517;-84
2023/10/29 10:23:55;;;;;;;2.05;1.50;;;;;;;;;;5035578;28;20055;-84
2023/10/29 10:26:38;;;;;;;3.97;2.00;;;;;;;;;;5029157;28;20422;-84
2023/10/29 10:29:09;;;;;;;2.50;2.28;;;;;;;;;;5041760;28;20520;-84
2023/10/29 10:32:13;;;;;;;;;;;;;;;;;;;;;
2023/10/29 10:38:22;;;;;;;3.67;2.17;;;;;;;;;;5006664;28;20053;-83
2023/10/29 10:41:01;;;;;;;3.53;1.75;;;;;;;;;;5031258;28;20064;-83
2023/10/29 10:43:38;;;;;;;4.63;2.30;;;;;;;;;;5070828;28;20425;-83
2023/10/29 10:46:10;;;;;;;5.88;2.15;;;;;;;;;;5036811;28;20048;-83
2023/10/29 10:49:03;;;;;;;4.60;2.03;;;;;;;;;;5037383;28;20414;-84
2023/10/29 10:51:40;;;;;;;2.63;2.15;;;;;;;;;;5044542;28;20533;-84
2023/10/29 10:54:10;;;;;;;2.67;1.58;;;;;;;;;;5059899;28;20040;-84
2023/10/29 10:56:40;;;;;;;2.75;2.33;;;;;;;;;;5096453;28;20033;-84
2023/10/29 10:59:10;;;;;;;2.13;1.90;;;;;;;;;;5056376;28;20032;-84
2023/10/29 11:01:39;;;;;;;2.13;1.90;;;;;;;;;;5070252;28;20417;-83
2023/10/29 11:04:10;;;;;;;6.25;2.08;;;;;;;;;;5052501;28;20051;-83
2023/10/29 11:06:46;;;;;;;2.30;1.73;;;;;;;;;;5069687;28;20041;-83
2023/10/29 11:09:21;;;;;;;6.25;2.00;;;;;;;;;;5036792;28;20052;-84
2023/10/29 11:12:20;;;;;;;2.78;2.38;;;;;;;;;;5041530;28;20414;-84
2023/10/29 11:15:23;;;;;;;2.65;2.42;;;;;;;;;;5033952;28;20053;-83
2023/10/29 11:18:00;;;;;;;11.32;3.00;;;;;;;;;;5048234;28;20071;-84
2023/10/29 11:24:25;;;;;;;2.58;2.13;;;;;;;;;;5033479;28;20049;-83
2023/10/29 11:27:57;;;;;;;7.43;2.25;;;;;;;;;;5037617;28;20517;-83
2023/10/29 11:30:35;;;;;;;;;;;;;;;;;;5053879;28;20047;-83
2023/10/29 11:33:53;;;;;;;;;;;;;;;;;;;;;
2023/10/29 11:36:47;;;;;;;2.08;1.88;;;;;;;;;;5050148;28;20410;-84
2023/10/29 11:40:31;;;;;;;3.47;1.92;;;;;;;;;;5045589;28;20115;-84
2023/10/29 11:43:40;;;;;;;2.05;1.70;;;;;;;;;;4976343;28;20506;-83
2023/10/29 11:47:15;;;;;;;3.63;2.10;;;;;;;;;;5053711;28;20040;-83
2023/10/29 11:50:27;;;;;;;;;;;;;;;;;;;;;
2023/10/29 11:53:06;;;;;;;2.88;2.08;;;;;;;;;;5067742;28;20043;-83
2023/10/29 11:55:45;;;;;;;2.25;2.00;;;;;;;;;;5067893;28;20676;-84
2023/10/29 11:58:22;;;;;;;3.47;2.63;;;;;;;;;;5070943;28;20040;-84
2023/10/29 12:00:52;;;;;;;3.60;1.95;;;;;;;;;;5049279;28;20521;-84
2023/10/29 12:03:20;;;;;;;2.97;2.67;;;;;;;;;;5070545;28;20529;-83
2023/10/29 12:05:48;;;;;;;2.67;2.45;;;;;;;;;;5050171;28;20048;-84
2023/10/29 12:08:17;;;;;;;2.78;2.45;;;;;;;;;;5035171;28;20048;-83
2023/10/29 12:11:23;;;;;;;2.35;1.73;;;;;;;;;;5035798;28;20071;-83
2023/10/29 12:18:22;;;;;;;;;;;;;;;;;;;;;
2023/10/29 12:22:04;;;;;;;;;;;;;;;;;;;;;
2023/10/29 12:25:11;;;;;;;;;;;;;;;;;;4967816;28;20095;-83
2023/10/29 12:28:36;;;;;;;;;;;;;;;;;;;;;
2023/10/29 12:31:55;;;;;;;5.82;2.80;;;;;;;;;;5005326;28;20428;-83
2023/10/29 12:34:23;;;;;;;3.50;2.20;;;;;;;;;;5004447;28;20061;-83
2023/10/29 12:36:51;;;;;;;2.50;2.15;;;;;;;;;;5045334;28;20059;-83
2023/10/29 12:39:26;;;;;;;3.38;2.35;;;;;;;;;;5032253;28;20056;-83
2023/10/29 12:42:02;;;;;;;13.23;2.63;;;;;;;;;;5068891;28;20148;-83
2023/10/29 12:44:58;;;;;;;3.90;1.60;;;;;;;;;;5055810;28;20056;-83
2023/10/29 12:47:53;;;;;;;;;;;;;;;;;;;;;
2023/10/29 13:01:49;;;;;;;2.25;1.75;;;;;;;;;;5065946;28;20032;-83
2023/10/29 13:04:17;;;;;;;1.95;1.85;;;;;;;;;;5054956;28;20056;-83
2023/10/29 13:06:45;;;;;;;2.08;1.50;;;;;;;;;;5073794;28;20040;-83
2023/10/29 13:09:17;;;;;;;2.05;1.85;;;;;;;;;;5055043;28;20076;-83
2023/10/29 13:11:46;;;;;;;2.45;2.05;;;;;;;;;;5038441;28;20055;-83
2023/10/29 13:14:13;;;;;;;2.10;1.67;;;;;;;;;;5045894;28;20063;-83
2023/10/29 13:16:41;;;;;;;2.10;1.70;;;;;;;;;;5060197;28;20057;-83
2023/10/29 13:19:11;;;;;;;3.97;2.45;;;;;;;;;;5080315;22;20052;-82
2023/10/29 13:21:40;;;;;;;2.25;2.00;;;;;;;;;;5035388;28;20132;-82
2023/10/29 13:24:08;;;;;;;2.05;1.85;;;;;;;;;;5062392;28;20049;-82
2023/10/29 13:26:38;;;;;;;3.42;1.90;;;;;;;;;;5074450;28;20032;-82
2023/10/29 13:29:06;;;;;;;2.88;2.25;;;;;;;;;;5054998;28;20053;-82
2023/10/29 13:31:33;;;;;;;3.10;2.50;;;;;;;;;;5044935;28;20041;-82
2023/10/29 13:34:08;;;;;;;2.45;2.22;;;;;;;;;;5027734;28;20056;-82
2023/10/29 13:36:38;;;;;;;2.42;1.77;;;;;;;;;;5061395;28;20044;-82
2023/10/29 13:39:06;;;;;;;3.33;2.60;;;;;;;;;;5053464;28;20054;-82
2023/10/29 13:41:33;;;;;;;2.65;2.05;;;;;;;;;;5059826;28;20056;-81
2023/10/29 13:44:03;;;;;;;1.83;1.42;;;;;;;;;;5060918;28;20438;-81
2023/10/29 13:46:30;;;;;;;2.58;1.77;;;;;;;;;;5042846;28;20055;-81
2023/10/29 13:48:59;;;;;;;6.97;2.00;;;;;;;;;;5036311;28;20045;-81
2023/10/29 13:51:27;;;;;;;2.33;2.13;;;;;;;;;;5057423;28;20046;-81
2023/10/29 13:53:58;;;;;;;3.28;2.85;;;;;;;;;;5032771;28;20053;-81
2023/10/29 13:56:25;;;;;;;3.33;2.55;;;;;;;;;;5051702;28;20057;-81
2023/10/29 13:58:53;;;;;;;3.58;2.45;;;;;;;;;;5037927;28;20041;-81
2023/10/29 14:01:22;;;;;;;2.60;2.17;;;;;;;;;;5042635;28;20064;-81
2023/10/29 14:03:50;;;;;;;2.35;1.73;;;;;;;;;;5043394;28;20049;-81
2023/10/29 14:06:21;;;;;;;4.00;1.95;;;;;;;;;;5042704;28;20061;-82
2023/10/29 14:08:51;;;;;;;3.58;2.53;;;;;;;;;;5029814;28;20049;-82
2023/10/29 14:11:20;;;;;;;2.80;2.45;;;;;;;;;;5044885;28;20061;-81
2023/10/29 14:13:55;;;;;;;4.05;3.00;;;;;;;;;;5060536;28;20052;-81
2023/10/29 14:16:35;;;;;;;3.08;2.78;;;;;;;;;;5027065;28;20614;-81
2023/10/29 14:19:03;;;;;;;4.07;2.55;;;;;;;;;;5050847;28;20057;-81
2023/10/29 14:21:30;;;;;;;3.28;2.78;;;;;;;;;;5034905;28;20060;-81
2023/10/29 14:24:02;;;;;;;3.75;3.03;;;;;;;;;;5061017;28;20049;-81
2023/10/29 14:26:31;;;;;;;5.40;2.92;;;;;;;;;;5058299;28;20060;-81
2023/10/29 14:28:58;;;;;;;4.35;3.30;;;;;;;;;;5043117;28;20529;-81
2023/10/29 14:31:28;;;;;;;5.72;3.05;;;;;;;;;;5038755;28;20056;-81
2023/10/29 14:34:00;;;;;;;4.82;2.15;;;;;;;;;;5042985;28;20045;-81
2023/10/29 14:36:27;;;;;;;3.83;2.83;;;;;;;;;;5059308;28;20049;-82
2023/10/29 14:38:54;;;;;;;2.42;1.90;;;;;;;;;;5051538;28;20486;-82
2023/10/29 14:41:24;;;;;;;3.10;2.80;;;;;;;;;;5038068;28;20068;-82
2023/10/29 14:43:55;;;;;;;3.70;2.45;;;;;;;;;;5030942;28;20064;-81
2023/10/29 14:46:25;;;;;;;4.20;3.00;;;;;;;;;;5055329;28;20060;-81
2023/10/29 14:48:53;;;;;;;3.28;2.40;;;;;;;;;;5051960;28;20045;-81
2023/10/29 14:51:22;;;;;;;2.80;2.40;;;;;;;;;;5049964;28;20056;-82
2023/10/29 14:53:49;;;;;;;2.85;2.42;;;;;;;;;;5041232;28;20048;-81
2023/10/29 14:56:22;;;;;;;2.75;1.92;;;;;;;;;;5054546;28;20371;-82
2023/10/29 14:58:49;;;;;;;2.67;2.17;;;;;;;;;;5052452;28;20045;-81
2023/10/29 15:01:20;;;;;;;3.15;2.28;;;;;;;;;;5051986;28;20060;-82
2023/10/29 15:03:47;;;;;;;3.60;2.20;;;;;;;;;;5035853;28;20541;-82
2023/10/29 15:06:15;;;;;;;3.03;2.50;;;;;;;;;;5052322;28;20060;-82
2023/10/29 15:08:42;;;;;;;3.30;2.30;;;;;;;;;;5059340;28;20054;-81
2023/10/29 15:11:11;;;;;;;3.63;2.58;;;;;;;;;;5056637;28;20048;-81
2023/10/29 15:13:41;;;;;;;2.60;2.40;;;;;;;;;;5046871;28;20053;-81
2023/10/29 15:16:11;;;;;;;2.97;2.13;;;;;;;;;;5045796;28;20048;-81
2023/10/29 15:18:39;;;;;;;3.35;2.22;;;;;;;;;;5048013;28;20045;-82
2023/10/29 15:21:09;;;;;;;2.60;2.38;;;;;;;;;;5039897;28;20128;-81
2023/10/29 15:23:39;;;;;;;3.97;2.92;;;;;;;;;;5040263;28;20041;-81
2023/10/29 15:26:14;;;;;;;2.72;2.40;;;;;;;;;;5033809;28;20053;-81
2023/10/29 15:28:41;;;;;;;3.60;2.50;;;;;;;;;;5058469;28;20669;-81
2023/10/29 15:31:11;;;;;;;4.03;2.75;;;;;;;;;;5035384;28;20068;-81
2023/10/29 15:33:40;;;;;;;3.67;2.38;;;;;;;;;;5057606;28;20041;-81
2023/10/29 15:36:08;;;;;;;3.80;2.25;;;;;;;;;;5037543;28;20040;-81
2023/10/29 15:38:36;;;;;;;3.55;2.03;;;;;;;;;;5037040;28;20060;-81
2023/10/29 15:41:04;;;;;;;3.70;2.50;;;;;;;;;;5044253;28;20060;-81
2023/10/29 15:43:32;;;;;;;3.72;2.92;;;;;;;;;;5040158;28;20152;-81
2023/10/29 15:45:59;;;;;;;3.28;2.63;;;;;;;;;;5041548;28;20399;-81
2023/10/29 15:48:26;;;;;;;3.55;2.10;;;;;;;;;;5057745;28;20048;-81
2023/10/29 15:50:57;;;;;;;3.83;2.28;;;;;;;;;;5053227;28;20049;-81
2023/10/29 15:53:27;;;;;;;3.83;2.00;;;;;;;;;;5059557;28;20049;-81
2023/10/29 15:55:54;;;;;;;1.67;1.40;;;;;;;;;;5053341;28;20056;-81
2023/10/29 15:58:24;;;;;;;1.60;1.23;;;;;;;;;;5055697;28;20049;-81
2023/10/29 16:00:56;;;;;;;1.33;1.23;;;;;;;;;;5037722;28;20064;-81
2023/10/29 16:03:23;;;;;;;3.03;1.17;;;;;;;;;;5045151;28;21085;-81
2023/10/29 16:05:55;;;;;;;2.25;1.50;;;;;;;;;;5054848;28;20064;-80
2023/10/29 16:08:23;;;;;;;2.38;1.20;;;;;;;;;;5062743;28;20048;-80
2023/10/29 16:10:50;;;;;;;1.08;0.80;;;;;;;;;;5043041;28;20058;-80
2023/10/29 16:13:20;;;;;;;2.35;1.13;;;;;;;;;;5062008;28;20052;-81
2023/10/29 16:15:49;;;;;;;2.67;1.08;;;;;;;;;;5058025;28;20045;-80
2023/10/29 16:18:21;;;;;;;1.70;0.80;;;;;;;;;;5055011;28;20044;-81
2023/10/29 16:20:48;;;;;;;1.20;0.70;;;;;;;;;;5036129;28;20063;-80
2023/10/29 16:23:17;;;;;;;1.98;0.88;;;;;;;;;;5050978;28;20498;-80
2023/10/29 16:25:44;;;;;;;2.63;0.70;;;;;;;;;;5034945;28;20049;-80
2023/10/29 16:28:12;;;;;;;2.03;0.73;;;;;;;;;;5036365;28;20060;-80